createdAt,value
2023-04-20T00:00:19.503Z,-0.09
2023-04-20T00:01:20.954Z,-0.08
2023-04-20T00:02:22.916Z,-0.09
2023-04-20T00:03:24.784Z,-0.12
2023-04-20T00:04:26.722Z,-0.16
2023-04-20T00:05:28.436Z,-0.18
2023-04-20T00:06:31.275Z,-0.21
2023-04-20T00:07:33.095Z,-0.21
2023-04-20T00:08:34.819Z,-0.18
2023-04-20T00:09:36.635Z,-0.20
2023-04-20T00:10:38.354Z,-0.22
2023-04-20T00:11:40.077Z,-0.23
2023-04-20T00:12:42.281Z,-0.23
2023-04-20T00:13:43.863Z,-0.25
2023-04-20T00:14:45.603Z,-0.25
2023-04-20T00:15:47.135Z,-0.26
2023-04-20T00:16:49.107Z,-0.27
2023-04-20T00:17:51.549Z,-0.27
2023-04-20T00:18:53.181Z,-0.25
2023-04-20T00:19:54.722Z,-0.26
2023-04-20T00:20:57.330Z,-0.28
2023-04-20T00:21:59.998Z,-0.27
2023-04-20T00:23:01.693Z,-0.31
2023-04-20T00:24:03.295Z,-0.29
2023-04-20T00:25:05.780Z,-0.32
2023-04-20T00:26:07.550Z,-0.36
2023-04-20T00:27:09.025Z,-0.36
2023-04-20T00:28:10.536Z,-0.39
2023-04-20T00:29:11.972Z,-0.41
2023-04-20T00:30:13.934Z,-0.43
2023-04-20T00:31:15.453Z,-0.44
2023-04-20T00:32:17.042Z,-0.44
2023-04-20T00:33:18.775Z,-0.47
2023-04-20T00:34:20.931Z,-0.49
2023-04-20T00:35:22.460Z,-0.50
2023-04-20T00:36:27.074Z,-0.52
2023-04-20T00:37:28.621Z,-0.52
2023-04-20T00:38:30.357Z,-0.49
2023-04-20T00:39:34.290Z,-0.49
2023-04-20T00:40:37.644Z,-0.46
2023-04-20T00:41:39.288Z,-0.47
2023-04-20T00:42:41.517Z,-0.48
2023-04-20T00:43:51.315Z,-0.50
2023-04-20T00:44:52.902Z,-0.49
2023-04-20T00:45:54.646Z,-0.52
2023-04-20T00:46:57.582Z,-0.51
2023-04-20T00:48:00.658Z,-0.52
2023-04-20T00:49:02.642Z,-0.52
2023-04-20T00:50:04.673Z,-0.47
2023-04-20T00:51:06.479Z,-0.46
2023-04-20T00:52:10.270Z,-0.45
2023-04-20T00:53:12.786Z,-0.48
2023-04-20T00:54:14.270Z,-0.50
2023-04-20T00:55:18.004Z,-0.50
2023-04-20T00:56:20.085Z,-0.49
2023-04-20T00:57:24.027Z,-0.54
2023-04-20T00:58:25.728Z,-0.50
2023-04-20T00:59:27.171Z,-0.58
2023-04-20T01:00:29.114Z,-0.61
2023-04-20T01:01:31.929Z,-0.64
2023-04-20T01:02:33.582Z,-0.67
2023-04-20T01:03:37.182Z,-0.69
2023-04-20T01:04:39.917Z,-0.69
2023-04-20T01:05:41.791Z,-0.66
2023-04-20T01:06:43.842Z,-0.67
2023-04-20T01:07:45.477Z,-0.70
2023-04-20T01:08:49.017Z,-0.72
2023-04-20T01:09:50.614Z,-0.74
2023-04-20T01:10:52.145Z,-0.75
2023-04-20T01:11:53.625Z,-0.75
2023-04-20T01:12:55.188Z,-0.79
2023-04-20T01:13:56.659Z,-0.81
2023-04-20T01:14:58.906Z,-0.82
2023-04-20T01:16:01.292Z,-0.84
2023-04-20T01:17:05.816Z,-0.84
2023-04-20T01:18:07.390Z,-0.86
2023-04-20T01:19:11.976Z,-0.87
2023-04-20T01:20:14.054Z,-0.87
2023-04-20T01:21:17.929Z,-0.87
2023-04-20T01:22:21.115Z,-0.88
2023-04-20T01:23:23.005Z,-0.86
2023-04-20T01:24:24.461Z,-0.86
2023-04-20T01:25:26.360Z,-0.87
2023-04-20T01:26:28.034Z,-0.87
2023-04-20T01:27:29.611Z,-0.86
2023-04-20T01:28:31.267Z,-0.89
2023-04-20T01:29:33.757Z,-0.89
2023-04-20T01:30:37.779Z,-0.89
2023-04-20T01:31:39.402Z,-0.91
2023-04-20T01:32:41.412Z,-0.91
2023-04-20T01:33:43.058Z,-0.87
2023-04-20T01:34:44.537Z,-0.89
2023-04-20T01:35:46.058Z,-0.91
2023-04-20T01:36:47.611Z,-0.93
2023-04-20T01:37:49.113Z,-0.95
2023-04-20T01:38:51.271Z,-0.93
2023-04-20T01:39:53.712Z,-0.93
2023-04-20T01:40:55.989Z,-0.92
2023-04-20T01:41:57.957Z,-0.95
2023-04-20T01:42:59.536Z,-0.98
2023-04-20T01:44:01.142Z,-0.99
2023-04-20T01:45:04.256Z,-1.00
2023-04-20T01:46:06.249Z,-1.01
2023-04-20T01:47:08.028Z,-1.01
2023-04-20T01:48:09.641Z,-0.98
2023-04-20T01:49:11.198Z,-0.98
2023-04-20T01:50:12.684Z,-1.00
2023-04-20T01:51:14.192Z,-1.02
2023-04-20T01:52:16.192Z,-1.01
2023-04-20T01:53:18.191Z,-1.03
2023-04-20T01:54:21.536Z,-1.05
2023-04-20T01:55:23.065Z,-1.16
2023-04-20T01:56:27.320Z,-1.15
2023-04-20T01:57:28.979Z,-1.16
2023-04-20T01:58:31.221Z,-1.19
2023-04-20T01:59:32.978Z,-1.21
2023-04-20T02:00:36.429Z,-1.22
2023-04-20T02:01:37.901Z,-1.21
2023-04-20T02:02:39.688Z,-1.18
2023-04-20T02:03:41.474Z,-1.18
2023-04-20T02:04:43.210Z,-1.20
2023-04-20T02:05:45.173Z,-1.16
2023-04-20T02:06:46.742Z,-1.18
2023-04-20T02:07:48.235Z,-1.18
2023-04-20T02:08:49.749Z,-1.17
2023-04-20T02:09:51.234Z,-1.16
2023-04-20T02:10:52.819Z,-1.20
2023-04-20T02:11:54.314Z,-1.23
2023-04-20T02:12:55.889Z,-1.27
2023-04-20T02:13:57.458Z,-1.30
2023-04-20T02:14:58.959Z,-1.32
2023-04-20T02:16:00.485Z,-1.33
2023-04-20T02:17:02.383Z,-1.34
2023-04-20T02:18:04.377Z,-1.35
2023-04-20T02:19:06.328Z,-1.32
2023-04-20T02:20:11.211Z,-1.28
2023-04-20T02:21:12.848Z,-1.26
2023-04-20T02:22:14.328Z,-1.32
2023-04-20T02:23:15.936Z,-1.39
2023-04-20T02:24:17.935Z,-1.37
2023-04-20T02:25:19.443Z,-1.40
2023-04-20T02:26:21.081Z,-1.40
2023-04-20T02:27:22.594Z,-1.41
2023-04-20T02:28:24.063Z,-1.31
2023-04-20T02:29:25.656Z,-1.37
2023-04-20T02:30:27.152Z,-1.40
2023-04-20T02:31:28.649Z,-1.41
2023-04-20T02:32:30.222Z,-1.42
2023-04-20T02:33:32.136Z,-1.44
2023-04-20T02:34:33.877Z,-1.44
2023-04-20T02:35:35.566Z,-1.44
2023-04-20T02:36:37.707Z,-1.43
2023-04-20T02:37:39.512Z,-1.47
2023-04-20T02:38:41.155Z,-1.48
2023-04-20T02:39:42.890Z,-1.51
2023-04-20T02:40:44.595Z,-1.55
2023-04-20T02:41:46.065Z,-1.54
2023-04-20T02:42:47.800Z,-1.56
2023-04-20T02:43:49.442Z,-1.57
2023-04-20T02:44:52.916Z,-1.56
2023-04-20T02:45:54.572Z,-1.55
2023-04-20T02:46:57.455Z,-1.55
2023-04-20T02:48:00.542Z,-1.56
2023-04-20T02:49:05.516Z,-1.52
2023-04-20T02:50:11.705Z,-1.47
2023-04-20T02:51:31.439Z,-1.52
2023-04-20T02:52:33.072Z,-1.61
2023-04-20T02:53:36.727Z,-1.63
2023-04-20T02:54:58.422Z,-1.65
2023-04-20T02:56:00.696Z,-1.66
2023-04-20T02:57:13.025Z,-1.64
2023-04-20T02:58:15.237Z,-1.64
2023-04-20T02:59:43.371Z,-1.66
2023-04-20T03:01:01.707Z,-1.67
2023-04-20T03:02:04.842Z,-1.66
2023-04-20T03:03:06.485Z,-1.71
2023-04-20T03:04:08.667Z,-1.73
2023-04-20T03:05:15.501Z,-1.77
2023-04-20T03:06:18.848Z,-1.77
2023-04-20T03:07:28.729Z,-1.76
2023-04-20T03:08:30.579Z,-1.76
2023-04-20T03:09:37.521Z,-1.77
2023-04-20T03:11:01.811Z,-1.77
2023-04-20T03:12:06.542Z,-1.74
2023-04-20T03:13:23.019Z,-1.73
2023-04-20T03:14:36.448Z,-1.68
2023-04-20T03:15:37.999Z,-1.69
2023-04-20T03:16:53.813Z,-1.71
2023-04-20T03:17:55.749Z,-1.73
2023-04-20T03:18:57.492Z,-1.70
2023-04-20T03:19:59.102Z,-1.71
2023-04-20T03:21:00.712Z,-1.70
2023-04-20T03:22:04.807Z,-1.62
2023-04-20T03:23:07.394Z,-1.61
2023-04-20T03:24:10.857Z,-1.67
2023-04-20T03:25:13.917Z,-1.68
2023-04-20T03:26:47.592Z,-1.74
2023-04-20T03:27:52.019Z,-1.77
2023-04-20T03:28:54.056Z,-1.80
2023-04-20T03:30:00.456Z,-1.82
2023-04-20T03:31:02.556Z,-1.85
2023-04-20T03:32:05.661Z,-1.86
2023-04-20T03:33:07.377Z,-1.86
2023-04-20T03:34:08.964Z,-1.85
2023-04-20T03:35:10.694Z,-1.83
2023-04-20T03:36:12.487Z,-1.84
2023-04-20T03:37:15.051Z,-1.85
2023-04-20T03:38:16.768Z,-1.87
2023-04-20T03:39:18.534Z,-1.86
2023-04-20T03:40:20.300Z,-1.83
2023-04-20T03:41:22.190Z,-1.86
2023-04-20T03:42:23.729Z,-1.88
2023-04-20T03:43:25.199Z,-1.85
2023-04-20T03:44:26.706Z,-1.78
2023-04-20T03:45:28.412Z,-1.77
2023-04-20T03:46:30.015Z,-1.76
2023-04-20T03:47:31.879Z,-1.75
2023-04-20T03:48:34.612Z,-1.76
2023-04-20T03:49:36.134Z,-1.72
2023-04-20T03:50:37.611Z,-1.71
2023-04-20T03:51:39.956Z,-1.65
2023-04-20T03:52:41.509Z,-1.66
2023-04-20T03:53:44.957Z,-1.69
2023-04-20T03:54:48.466Z,-1.68
2023-04-20T03:55:51.766Z,-1.64
2023-04-20T03:56:55.958Z,-1.66
2023-04-20T03:57:58.277Z,-1.60
2023-04-20T03:59:01.706Z,-1.53
2023-04-20T04:00:04.614Z,-1.47
2023-04-20T04:01:19.541Z,-1.43
2023-04-20T04:02:23.628Z,-1.43
2023-04-20T04:03:27.062Z,-1.47
2023-04-20T04:04:28.890Z,-1.46
2023-04-20T04:05:32.881Z,-1.50
2023-04-20T04:06:34.851Z,-1.51
2023-04-20T04:07:36.414Z,-1.49
2023-04-20T04:08:38.007Z,-1.44
2023-04-20T04:09:39.817Z,-1.42
2023-04-20T04:10:42.808Z,-1.40
2023-04-20T04:11:44.395Z,-1.38
2023-04-20T04:12:46.156Z,-1.36
2023-04-20T04:13:47.656Z,-1.31
2023-04-20T04:14:49.446Z,-1.25
2023-04-20T04:15:54.119Z,-1.22
2023-04-20T04:16:56.436Z,-1.18
2023-04-20T04:17:58.472Z,-1.14
2023-04-20T04:19:00.642Z,-1.09
2023-04-20T04:20:02.452Z,-1.08
2023-04-20T04:21:04.624Z,-1.07
2023-04-20T04:22:06.908Z,-1.04
2023-04-20T04:23:12.417Z,-1.03
2023-04-20T04:24:26.718Z,-0.98
2023-04-20T04:25:37.761Z,-0.97
2023-04-20T04:26:39.989Z,-0.99
2023-04-20T04:27:42.092Z,-0.99
2023-04-20T04:28:45.882Z,-1.00
2023-04-20T04:29:56.553Z,-1.01
2023-04-20T04:31:01.402Z,-1.06
2023-04-20T04:32:04.129Z,-1.03
2023-04-20T04:33:05.725Z,-1.06
2023-04-20T04:34:12.220Z,-1.09
2023-04-20T04:35:19.143Z,-1.07
2023-04-20T04:36:21.522Z,-1.06
2023-04-20T04:37:23.180Z,-1.06
2023-04-20T04:38:28.771Z,-1.01
2023-04-20T04:39:30.419Z,-0.95
2023-04-20T04:40:41.747Z,-0.92
2023-04-20T04:41:43.917Z,-0.89
2023-04-20T04:43:10.137Z,-0.94
2023-04-20T04:44:18.190Z,-0.94
2023-04-20T04:45:20.956Z,-0.94
2023-04-20T04:46:22.645Z,-0.93
2023-04-20T04:47:24.243Z,-0.90
2023-04-20T04:48:26.604Z,-0.89
2023-04-20T04:49:29.513Z,-0.88
2023-04-20T04:50:31.082Z,-0.82
2023-04-20T04:51:33.234Z,-0.77
2023-04-20T04:52:35.332Z,-0.75
2023-04-20T04:53:37.211Z,-0.73
2023-04-20T04:54:38.987Z,-0.70
2023-04-20T04:55:40.524Z,-0.67
2023-04-20T04:56:42.001Z,-0.65
2023-04-20T04:57:43.505Z,-0.64
2023-04-20T04:58:45.557Z,-0.64
2023-04-20T04:59:47.250Z,-0.56
2023-04-20T05:00:48.913Z,-0.52
2023-04-20T05:01:50.659Z,-0.45
2023-04-20T05:02:55.614Z,-0.41
2023-04-20T05:03:57.436Z,-0.42
2023-04-20T05:04:59.018Z,-0.32
2023-04-20T05:06:00.710Z,-0.26
2023-04-20T05:07:02.330Z,-0.25
2023-04-20T05:08:03.948Z,-0.19
2023-04-20T05:09:05.899Z,-0.14
2023-04-20T05:10:08.285Z,-0.07
2023-04-20T05:11:09.760Z,-0.03
2023-04-20T05:12:11.238Z,0.02
2023-04-20T05:13:12.681Z,0.07
2023-04-20T05:14:14.414Z,0.08
2023-04-20T05:15:15.932Z,0.06
2023-04-20T05:16:18.662Z,0.11
2023-04-20T05:17:20.426Z,0.12
2023-04-20T05:18:21.991Z,0.14
2023-04-20T05:19:23.496Z,0.10
2023-04-20T05:20:24.949Z,0.25
2023-04-20T05:21:26.423Z,0.22
2023-04-20T05:22:27.941Z,0.26
2023-04-20T05:23:29.584Z,0.36
2023-04-20T05:24:31.166Z,0.39
2023-04-20T05:25:32.782Z,0.42
2023-04-20T05:26:34.240Z,0.43
2023-04-20T05:27:35.804Z,0.48
2023-04-20T05:28:37.700Z,0.58
2023-04-20T05:29:39.331Z,0.69
2023-04-20T05:30:41.072Z,0.90
2023-04-20T05:31:42.655Z,1.17
2023-04-20T05:32:44.227Z,1.61
2023-04-20T05:33:45.938Z,2.08
2023-04-20T05:34:47.439Z,2.22
2023-04-20T05:35:49.012Z,2.46
2023-04-20T05:36:51.985Z,2.51
2023-04-20T05:37:53.506Z,2.73
2023-04-20T05:38:55.399Z,2.85
2023-04-20T05:39:56.830Z,2.84
2023-04-20T05:40:58.306Z,2.66
2023-04-20T05:41:59.809Z,2.66
2023-04-20T05:43:01.576Z,2.71
2023-04-20T05:44:03.414Z,2.66
2023-04-20T05:45:05.492Z,2.67
2023-04-20T05:46:07.005Z,2.94
2023-04-20T05:47:08.735Z,3.39
2023-04-20T05:48:10.797Z,3.87
2023-04-20T05:49:12.279Z,4.08
2023-04-20T05:50:13.732Z,4.61
2023-04-20T05:51:15.841Z,4.77
2023-04-20T05:52:17.647Z,4.99
2023-04-20T05:53:19.448Z,5.08
2023-04-20T05:54:21.022Z,4.98
2023-04-20T05:55:23.101Z,4.87
2023-04-20T05:56:24.897Z,4.95
2023-04-20T05:57:26.435Z,4.98
2023-04-20T05:58:28.068Z,5.24
2023-04-20T05:59:29.590Z,5.24
2023-04-20T06:00:31.636Z,5.01
2023-04-20T06:01:33.168Z,4.47
2023-04-20T06:02:35.507Z,4.38
2023-04-20T06:03:37.379Z,4.51
2023-04-20T06:04:39.425Z,4.64
2023-04-20T06:05:41.300Z,5.07
2023-04-20T06:06:42.893Z,5.19
2023-04-20T06:07:44.372Z,5.41
2023-04-20T06:08:46.129Z,5.48
2023-04-20T06:09:47.651Z,5.60
2023-04-20T06:10:49.281Z,5.06
2023-04-20T06:11:50.720Z,5.03
2023-04-20T06:12:52.149Z,4.95
2023-04-20T06:13:53.650Z,4.83
2023-04-20T06:14:55.121Z,4.64
2023-04-20T06:15:56.747Z,4.35
2023-04-20T06:16:58.270Z,4.14
2023-04-20T06:18:01.243Z,4.06
2023-04-20T06:19:02.770Z,4.03
2023-04-20T06:20:05.653Z,3.99
2023-04-20T06:21:10.365Z,3.89
2023-04-20T06:22:12.242Z,4.19
2023-04-20T06:23:13.978Z,4.28
2023-04-20T06:24:15.575Z,4.22
2023-04-20T06:25:17.230Z,4.21
2023-04-20T06:26:18.730Z,3.99
2023-04-20T06:27:20.221Z,3.69
2023-04-20T06:28:21.714Z,3.55
2023-04-20T06:29:24.158Z,3.39
2023-04-20T06:30:25.849Z,3.30
2023-04-20T06:31:27.395Z,3.18
2023-04-20T06:32:28.931Z,3.07
2023-04-20T06:33:31.160Z,3.22
2023-04-20T06:34:32.651Z,3.26
2023-04-20T06:35:34.133Z,3.33
2023-04-20T06:36:35.860Z,3.77
2023-04-20T06:37:37.705Z,4.15
2023-04-20T06:38:40.695Z,4.29
2023-04-20T06:39:42.143Z,4.42
2023-04-20T06:40:43.630Z,4.68
2023-04-20T06:41:45.153Z,4.48
2023-04-20T06:42:49.132Z,4.69
2023-04-20T06:43:51.491Z,5.09
2023-04-20T06:44:53.010Z,5.07
2023-04-20T06:45:54.562Z,5.26
2023-04-20T06:46:56.568Z,5.47
2023-04-20T06:47:58.189Z,5.33
2023-04-20T06:48:59.741Z,5.51
2023-04-20T06:50:02.293Z,5.86
2023-04-20T06:51:03.862Z,5.91
2023-04-20T06:52:06.281Z,5.86
2023-04-20T06:53:07.844Z,6.08
2023-04-20T06:54:10.062Z,6.10
2023-04-20T06:55:11.600Z,6.23
2023-04-20T06:56:13.074Z,6.31
2023-04-20T06:57:14.532Z,6.43
2023-04-20T06:58:16.044Z,6.38
2023-04-20T06:59:18.726Z,6.62
2023-04-20T07:00:20.702Z,6.80
2023-04-20T07:01:22.221Z,6.85
2023-04-20T07:02:23.803Z,6.91
2023-04-20T07:03:25.662Z,6.78
2023-04-20T07:04:27.352Z,6.58
2023-04-20T07:05:28.896Z,6.18
2023-04-20T07:06:30.586Z,6.12
2023-04-20T07:07:32.068Z,5.93
2023-04-20T07:08:33.946Z,5.44
2023-04-20T07:09:35.481Z,5.71
2023-04-20T07:10:36.943Z,5.85
2023-04-20T07:11:38.448Z,5.98
2023-04-20T07:12:42.924Z,6.18
2023-04-20T07:13:45.516Z,6.59
2023-04-20T07:14:47.015Z,6.86
2023-04-20T07:15:48.467Z,7.07
2023-04-20T07:16:53.611Z,6.77
2023-04-20T07:17:55.375Z,6.83
2023-04-20T07:18:57.111Z,6.55
2023-04-20T07:20:06.135Z,6.40
2023-04-20T07:21:07.585Z,6.10
2023-04-20T07:22:09.150Z,5.53
2023-04-20T07:23:10.721Z,5.32
2023-04-20T07:24:12.596Z,4.98
2023-04-20T07:25:14.117Z,4.97
2023-04-20T07:26:15.916Z,4.94
2023-04-20T07:27:18.052Z,5.03
2023-04-20T07:28:20.081Z,4.94
2023-04-20T07:29:21.805Z,5.22
2023-04-20T07:30:23.358Z,5.26
2023-04-20T07:31:25.588Z,5.20
2023-04-20T07:32:27.429Z,5.18
2023-04-20T07:33:29.879Z,5.14
2023-04-20T07:34:31.482Z,5.26
2023-04-20T07:35:32.972Z,4.97
2023-04-20T07:36:34.854Z,5.02
2023-04-20T07:37:36.726Z,4.70
2023-04-20T07:38:39.144Z,4.67
2023-04-20T07:39:40.675Z,4.76
2023-04-20T07:40:42.213Z,4.89
2023-04-20T07:41:43.947Z,4.89
2023-04-20T07:42:45.912Z,4.93
2023-04-20T07:43:47.392Z,4.89
2023-04-20T07:44:49.191Z,4.96
2023-04-20T07:45:50.797Z,4.97
2023-04-20T07:46:52.594Z,5.01
2023-04-20T07:47:55.601Z,4.98
2023-04-20T07:48:57.221Z,4.67
2023-04-20T07:49:58.705Z,4.49
2023-04-20T07:51:00.415Z,4.48
2023-04-20T07:52:15.095Z,4.53
2023-04-20T07:53:17.743Z,4.52
2023-04-20T07:54:19.237Z,4.46
2023-04-20T07:55:21.114Z,4.25
2023-04-20T07:56:22.607Z,4.34
2023-04-20T07:57:24.323Z,4.32
2023-04-20T07:58:25.933Z,4.22
2023-04-20T07:59:27.528Z,4.25
2023-04-20T08:00:29.504Z,4.31
2023-04-20T08:01:31.358Z,3.94
2023-04-20T08:02:33.670Z,4.01
2023-04-20T08:03:36.329Z,4.00
2023-04-20T08:04:38.729Z,4.02
2023-04-20T08:05:43.636Z,3.95
2023-04-20T08:06:45.261Z,3.78
2023-04-20T08:07:46.940Z,3.88
2023-04-20T08:08:48.449Z,3.81
2023-04-20T08:09:50.030Z,3.83
2023-04-20T08:10:51.513Z,3.85
2023-04-20T08:11:53.034Z,3.95
2023-04-20T08:12:54.558Z,3.91
2023-04-20T08:13:57.281Z,3.96
2023-04-20T08:15:01.884Z,3.95
2023-04-20T08:16:03.581Z,3.99
2023-04-20T08:17:05.217Z,4.09
2023-04-20T08:18:06.789Z,3.96
2023-04-20T08:19:11.179Z,4.03
2023-04-20T08:20:12.774Z,4.04
2023-04-20T08:21:14.621Z,3.94
2023-04-20T08:22:16.147Z,3.87
2023-04-20T08:23:17.735Z,3.88
2023-04-20T08:24:20.745Z,3.67
2023-04-20T08:25:24.243Z,3.59
2023-04-20T08:26:27.476Z,3.63
2023-04-20T08:27:30.582Z,3.64
2023-04-20T08:28:33.775Z,3.69
2023-04-20T08:29:36.621Z,3.66
2023-04-20T08:30:41.324Z,3.62
2023-04-20T08:31:43.111Z,3.56
2023-04-20T08:32:44.832Z,3.60
2023-04-20T08:33:46.601Z,3.59
2023-04-20T08:34:49.187Z,3.61
2023-04-20T08:35:54.660Z,3.54
2023-04-20T08:36:56.260Z,3.51
2023-04-20T08:37:57.755Z,3.47
2023-04-20T08:39:09.133Z,3.56
2023-04-20T08:40:11.327Z,3.62
2023-04-20T08:41:16.014Z,3.44
2023-04-20T08:42:17.608Z,3.45
2023-04-20T08:43:20.663Z,3.47
2023-04-20T08:44:24.219Z,3.53
2023-04-20T08:45:27.052Z,3.45
2023-04-20T08:46:28.937Z,3.57
2023-04-20T08:47:33.044Z,3.45
2023-04-20T08:48:36.565Z,3.38
2023-04-20T08:49:39.595Z,3.29
2023-04-20T08:50:42.037Z,3.32
2023-04-20T08:51:44.669Z,3.32
2023-04-20T08:52:46.686Z,3.34
2023-04-20T08:53:48.458Z,3.34
2023-04-20T08:54:56.937Z,3.30
2023-04-20T08:55:59.695Z,3.42
2023-04-20T08:57:01.782Z,3.39
2023-04-20T08:58:03.301Z,3.31
2023-04-20T08:59:05.771Z,3.32
2023-04-20T09:00:12.116Z,3.34
2023-04-20T09:01:17.680Z,3.35
2023-04-20T09:02:22.826Z,3.32
2023-04-20T09:03:35.826Z,3.36
2023-04-20T09:04:37.781Z,3.42
2023-04-20T09:05:39.957Z,3.48
2023-04-20T09:06:44.375Z,3.54
2023-04-20T09:07:53.108Z,3.63
2023-04-20T09:08:55.544Z,3.78
2023-04-20T09:09:58.431Z,3.80
2023-04-20T09:10:59.871Z,3.89
2023-04-20T09:12:07.359Z,3.95
2023-04-20T09:13:27.126Z,4.05
2023-04-20T09:14:29.000Z,3.91
2023-04-20T09:15:31.826Z,3.89
2023-04-20T09:16:37.531Z,3.96
2023-04-20T09:17:41.006Z,4.06
2023-04-20T09:18:52.399Z,4.13
2023-04-20T09:19:53.978Z,4.16
2023-04-20T09:20:55.491Z,4.20
2023-04-20T09:22:03.818Z,4.29
2023-04-20T09:23:19.255Z,4.40
2023-04-20T09:24:22.800Z,4.45
2023-04-20T09:25:28.833Z,4.52
2023-04-20T09:26:35.255Z,4.35
2023-04-20T09:27:36.723Z,4.47
2023-04-20T09:28:39.054Z,4.47
2023-04-20T09:29:40.669Z,4.63
2023-04-20T09:30:44.480Z,4.70
2023-04-20T09:31:46.776Z,4.76
2023-04-20T09:32:49.023Z,4.39
2023-04-20T09:34:04.154Z,4.58
2023-04-20T09:35:07.938Z,4.59
2023-04-20T09:36:10.958Z,4.54
2023-04-20T09:37:15.063Z,4.58
2023-04-20T09:38:16.941Z,4.54
2023-04-20T09:39:23.255Z,4.62
2023-04-20T09:40:26.257Z,4.58
2023-04-20T09:41:28.269Z,4.71
2023-04-20T09:42:32.109Z,4.74
2023-04-20T09:43:35.298Z,4.80
2023-04-20T09:44:38.766Z,4.85
2023-04-20T09:45:40.667Z,4.96
2023-04-20T09:46:43.187Z,5.04
2023-04-20T09:47:46.902Z,4.90
2023-04-20T09:48:48.939Z,5.06
2023-04-20T09:49:50.975Z,5.09
2023-04-20T09:50:52.773Z,5.09
2023-04-20T09:51:54.513Z,5.23
2023-04-20T09:52:56.850Z,5.38
2023-04-20T09:54:01.056Z,5.31
2023-04-20T09:55:03.057Z,5.25
2023-04-20T09:56:06.828Z,5.22
2023-04-20T09:57:09.725Z,5.39
2023-04-20T09:58:11.559Z,5.37
2023-04-20T09:59:13.802Z,5.40
2023-04-20T10:00:15.972Z,5.40
2023-04-20T10:01:17.746Z,5.36
2023-04-20T10:02:19.459Z,5.19
2023-04-20T10:03:21.719Z,5.42
2023-04-20T10:04:24.237Z,5.42
2023-04-20T10:05:34.226Z,5.57
2023-04-20T10:06:36.565Z,5.59
2023-04-20T10:07:38.357Z,5.58
2023-04-20T10:08:41.963Z,5.62
2023-04-20T10:09:43.627Z,5.43
2023-04-20T10:10:49.904Z,5.34
2023-04-20T10:11:54.596Z,5.38
2023-04-20T10:13:01.210Z,5.37
2023-04-20T10:14:17.452Z,5.25
2023-04-20T10:15:21.669Z,5.24
2023-04-20T10:16:23.536Z,5.22
2023-04-20T10:17:34.025Z,5.19
2023-04-20T10:18:36.087Z,5.25
2023-04-20T10:19:42.579Z,5.27
2023-04-20T10:20:44.149Z,5.03
2023-04-20T10:21:50.240Z,5.10
2023-04-20T10:22:53.789Z,5.24
2023-04-20T10:23:56.166Z,5.24
2023-04-20T10:24:57.654Z,5.26
2023-04-20T10:26:00.716Z,5.27
2023-04-20T10:27:03.951Z,5.31
2023-04-20T10:28:09.641Z,5.39
2023-04-20T10:29:22.587Z,5.58
2023-04-20T10:30:26.009Z,5.45
2023-04-20T10:31:44.224Z,5.72
2023-04-20T10:32:45.795Z,5.96
2023-04-20T10:33:56.552Z,6.19
2023-04-20T10:35:02.578Z,6.45
2023-04-20T10:36:04.483Z,6.63
2023-04-20T10:37:10.847Z,6.83
2023-04-20T10:38:13.030Z,6.66
2023-04-20T10:39:20.057Z,7.04
2023-04-20T10:40:27.151Z,6.98
2023-04-20T10:41:28.670Z,6.98
2023-04-20T10:42:41.649Z,6.57
2023-04-20T10:43:43.629Z,6.49
2023-04-20T10:44:52.952Z,6.67
2023-04-20T10:45:54.746Z,6.68
2023-04-20T10:46:56.846Z,6.59
2023-04-20T10:47:58.443Z,6.89
2023-04-20T10:49:02.168Z,6.83
2023-04-20T10:50:12.207Z,6.77
2023-04-20T10:51:13.732Z,6.97
2023-04-20T10:52:15.189Z,7.00
2023-04-20T10:53:21.529Z,7.00
2023-04-20T10:54:23.152Z,6.88
2023-04-20T10:55:26.177Z,6.86
2023-04-20T10:56:27.809Z,7.04
2023-04-20T10:57:29.492Z,6.75
2023-04-20T10:58:30.969Z,6.85
2023-04-20T10:59:34.973Z,6.75
2023-04-20T11:00:36.469Z,6.63
2023-04-20T11:01:38.875Z,6.49
2023-04-20T11:02:53.139Z,6.14
2023-04-20T11:03:54.742Z,6.03
2023-04-20T11:05:00.823Z,5.93
2023-04-20T11:06:04.132Z,5.87
2023-04-20T11:07:07.740Z,5.52
2023-04-20T11:08:09.243Z,5.32
2023-04-20T11:09:23.478Z,5.05
2023-04-20T11:10:39.687Z,4.93
2023-04-20T11:11:41.188Z,4.94
2023-04-20T11:12:42.721Z,4.97
2023-04-20T11:13:44.205Z,4.93
2023-04-20T11:14:58.763Z,4.83
2023-04-20T11:16:00.449Z,4.57
2023-04-20T11:17:02.316Z,4.72
2023-04-20T11:18:12.054Z,4.77
2023-04-20T11:19:22.911Z,4.66
2023-04-20T11:20:24.442Z,4.72
2023-04-20T11:21:39.344Z,4.72
2023-04-20T11:22:42.422Z,4.46
2023-04-20T11:23:44.792Z,4.54
2023-04-20T11:24:46.327Z,4.40
2023-04-20T11:25:50.790Z,4.35
2023-04-20T11:26:54.349Z,4.30
2023-04-20T11:28:07.461Z,4.21
2023-04-20T11:29:08.989Z,4.25
2023-04-20T11:30:10.630Z,4.26
2023-04-20T11:31:18.212Z,4.40
2023-04-20T11:32:20.350Z,4.37
2023-04-20T11:33:28.139Z,4.39
2023-04-20T11:34:30.101Z,4.35
2023-04-20T11:35:40.044Z,4.29
2023-04-20T11:36:41.774Z,4.32
2023-04-20T11:37:51.351Z,4.30
2023-04-20T11:38:53.123Z,4.36
2023-04-20T11:40:01.540Z,4.23
2023-04-20T11:41:07.792Z,4.14
2023-04-20T11:42:09.474Z,4.12
2023-04-20T11:43:11.008Z,4.09
2023-04-20T11:44:12.456Z,4.12
2023-04-20T11:45:14.048Z,4.20
2023-04-20T11:46:20.465Z,4.23
2023-04-20T11:47:22.122Z,4.26
2023-04-20T11:48:23.830Z,4.29
2023-04-20T11:49:26.916Z,4.29
2023-04-20T11:50:28.432Z,4.25
2023-04-20T11:51:31.242Z,4.24
2023-04-20T11:52:33.081Z,4.24
2023-04-20T11:53:34.848Z,4.26
2023-04-20T11:54:36.715Z,4.28
2023-04-20T11:55:38.169Z,4.26
2023-04-20T11:56:42.441Z,4.21
2023-04-20T11:57:44.225Z,4.21
2023-04-20T11:58:46.267Z,4.21
2023-04-20T11:59:49.073Z,4.24
2023-04-20T12:00:51.068Z,4.21
2023-04-20T12:01:52.572Z,4.22
2023-04-20T12:02:54.239Z,4.25
2023-04-20T12:03:56.375Z,4.22
2023-04-20T12:04:58.927Z,4.24
2023-04-20T12:06:00.723Z,4.27
2023-04-20T12:07:03.053Z,4.41
2023-04-20T12:08:04.857Z,4.48
2023-04-20T12:09:06.500Z,4.52
2023-04-20T12:10:08.689Z,4.63
2023-04-20T12:11:10.285Z,4.79
2023-04-20T12:12:11.855Z,4.85
2023-04-20T12:13:13.501Z,4.85
2023-04-20T12:14:15.044Z,4.94
2023-04-20T12:15:16.726Z,4.97
2023-04-20T12:16:18.301Z,4.92
2023-04-20T12:17:19.797Z,4.80
2023-04-20T12:18:21.409Z,4.80
2023-04-20T12:19:22.846Z,4.79
2023-04-20T12:20:24.385Z,4.82
2023-04-20T12:21:26.022Z,4.87
2023-04-20T12:22:27.550Z,4.87
2023-04-20T12:23:29.106Z,4.99
2023-04-20T12:24:30.850Z,5.09
2023-04-20T12:25:32.406Z,5.20
2023-04-20T12:26:38.369Z,5.31
2023-04-20T12:27:40.520Z,5.41
2023-04-20T12:28:42.048Z,5.41
2023-04-20T12:29:43.557Z,5.39
2023-04-20T12:30:45.021Z,5.41
2023-04-20T12:31:46.640Z,5.52
2023-04-20T12:32:48.147Z,5.55
2023-04-20T12:33:49.692Z,5.52
2023-04-20T12:34:51.510Z,5.57
2023-04-20T12:35:52.970Z,5.61
2023-04-20T12:36:54.700Z,5.64
2023-04-20T12:37:56.455Z,5.62
2023-04-20T12:38:58.364Z,5.62
2023-04-20T12:39:59.887Z,5.55
2023-04-20T12:41:01.516Z,5.55
2023-04-20T12:42:03.671Z,5.64
2023-04-20T12:43:05.196Z,5.65
2023-04-20T12:44:07.675Z,5.64
2023-04-20T12:45:11.240Z,5.59
2023-04-20T12:46:13.011Z,5.66
2023-04-20T12:47:14.637Z,5.60
2023-04-20T12:48:16.376Z,5.60
2023-04-20T12:49:18.137Z,5.71
2023-04-20T12:50:20.056Z,5.76
2023-04-20T12:51:21.510Z,5.78
2023-04-20T12:52:23.047Z,5.78
2023-04-20T12:53:24.615Z,5.79
2023-04-20T12:54:26.049Z,5.77
2023-04-20T12:55:27.749Z,5.73
2023-04-20T12:56:29.264Z,5.66
2023-04-20T12:57:30.713Z,5.60
2023-04-20T12:58:32.266Z,5.42
2023-04-20T12:59:33.727Z,5.41
2023-04-20T13:00:36.916Z,5.45
2023-04-20T13:01:38.417Z,5.42
2023-04-20T13:02:40.033Z,5.37
2023-04-20T13:03:42.570Z,5.26
2023-04-20T13:04:45.455Z,5.27
2023-04-20T13:05:46.938Z,5.12
2023-04-20T13:06:49.111Z,5.15
2023-04-20T13:07:50.742Z,5.04
2023-04-20T13:08:52.530Z,5.17
2023-04-20T13:09:54.235Z,5.16
2023-04-20T13:10:55.749Z,5.18
2023-04-20T13:11:57.931Z,5.19
2023-04-20T13:12:59.798Z,5.08
2023-04-20T13:14:01.354Z,4.95
2023-04-20T13:15:03.212Z,4.85
2023-04-20T13:16:04.965Z,5.00
2023-04-20T13:17:06.991Z,4.89
2023-04-20T13:18:09.837Z,5.06
2023-04-20T13:19:11.550Z,5.07
2023-04-20T13:20:13.385Z,4.99
2023-04-20T13:21:14.964Z,4.97
2023-04-20T13:22:18.738Z,4.90
2023-04-20T13:23:20.708Z,4.86
2023-04-20T13:24:22.354Z,4.92
2023-04-20T13:25:25.472Z,4.91
2023-04-20T13:26:27.037Z,4.88
2023-04-20T13:27:28.529Z,4.88
2023-04-20T13:28:30.250Z,5.00
2023-04-20T13:29:31.862Z,4.92
2023-04-20T13:30:33.449Z,4.97
2023-04-20T13:31:35.005Z,5.11
2023-04-20T13:32:38.789Z,5.09
2023-04-20T13:33:40.747Z,5.17
2023-04-20T13:34:42.205Z,5.11
2023-04-20T13:35:43.793Z,5.10
2023-04-20T13:36:45.703Z,5.20
2023-04-20T13:37:47.295Z,5.22
2023-04-20T13:38:49.083Z,5.08
2023-04-20T13:39:50.791Z,5.09
2023-04-20T13:40:52.302Z,4.93
2023-04-20T13:41:53.826Z,4.94
2023-04-20T13:42:55.651Z,4.96
2023-04-20T13:43:57.945Z,5.07
2023-04-20T13:44:59.423Z,5.02
2023-04-20T13:46:01.196Z,5.00
2023-04-20T13:47:02.781Z,5.11
2023-04-20T13:48:04.430Z,5.10